sensor_id;sensor_type;location;lat;lon;timestamp;temperature;humidity
9329;DHT22;4703;48.748;19.142;2022-10-26T00:01:10;10.30;99.90
9329;DHT22;4703;48.748;19.142;2022-10-26T00:03:39;10.30;99.90
9329;DHT22;4703;48.748;19.142;2022-10-26T00:06:10;10.20;99.90
9329;DHT22;4703;48.748;19.142;2022-10-26T00:08:42;10.10;99.90
9329;DHT22;4703;48.748;19.142;2022-10-26T00:11:11;10.00;99.90
9329;DHT22;4703;48.748;19.142;2022-10-26T00:13:39;12.40;99.90
9329;DHT22;4703;48.748;19.142;2022-10-26T00:16:40;10.00;99.90
9329;DHT22;4703;48.748;19.142;2022-10-26T00:19:00;10.00;99.90
9329;DHT22;4703;48.748;19.142;2022-10-26T00:21:27;9.90;99.90
9329;DHT22;4703;48.748;19.142;2022-10-26T00:23:54;10.00;99.90
9329;DHT22;4703;48.748;19.142;2022-10-26T00:26:21;9.80;99.90
9329;DHT22;4703;48.748;19.142;2022-10-26T00:28:47;12.20;99.90
9329;DHT22;4703;48.748;19.142;2022-10-26T00:31:15;9.70;99.90
9329;DHT22;4703;48.748;19.142;2022-10-26T00:33:42;9.70;99.90
9329;DHT22;4703;48.748;19.142;2022-10-26T00:36:10;9.70;99.90
9329;DHT22;4703;48.748;19.142;2022-10-26T00:38:39;9.70;99.90
9329;DHT22;4703;48.748;19.142;2022-10-26T00:41:14;12.50;99.90
9329;DHT22;4703;48.748;19.142;2022-10-26T00:43:42;9.60;99.90
9329;DHT22;4703;48.748;19.142;2022-10-26T00:46:12;9.50;99.90
9329;DHT22;4703;48.748;19.142;2022-10-26T00:48:45;9.50;99.90
9329;DHT22;4703;48.748;19.142;2022-10-26T00:51:43;9.50;99.90
9329;DHT22;4703;48.748;19.142;2022-10-26T00:54:16;9.50;99.90
9329;DHT22;4703;48.748;19.142;2022-10-26T00:56:48;9.60;99.90
9329;DHT22;4703;48.748;19.142;2022-10-26T00:59:16;9.60;99.90
9329;DHT22;4703;48.748;19.142;2022-10-26T01:01:45;9.70;99.90
9329;DHT22;4703;48.748;19.142;2022-10-26T01:04:14;9.50;99.90
9329;DHT22;4703;48.748;19.142;2022-10-26T01:06:42;9.50;99.90
9329;DHT22;4703;48.748;19.142;2022-10-26T01:09:10;9.40;99.90
9329;DHT22;4703;48.748;19.142;2022-10-26T01:11:37;12.30;99.90
9329;DHT22;4703;48.748;19.142;2022-10-26T01:14:06;11.20;99.90
9329;DHT22;4703;48.748;19.142;2022-10-26T01:19:54;9.30;99.90
9329;DHT22;4703;48.748;19.142;2022-10-26T01:28:42;9.10;99.90
9329;DHT22;4703;48.748;19.142;2022-10-26T01:31:17;9.00;99.90
9329;DHT22;4703;48.748;19.142;2022-10-26T01:34:02;9.00;99.90
9329;DHT22;4703;48.748;19.142;2022-10-26T01:36:41;9.00;99.90
9329;DHT22;4703;48.748;19.142;2022-10-26T01:39:28;9.00;99.90
9329;DHT22;4703;48.748;19.142;2022-10-26T01:42:04;8.90;99.90
9329;DHT22;4703;48.748;19.142;2022-10-26T01:44:40;8.90;99.90
9329;DHT22;4703;48.748;19.142;2022-10-26T01:47:12;8.90;99.90
9329;DHT22;4703;48.748;19.142;2022-10-26T01:49:57;10.30;99.90
9329;DHT22;4703;48.748;19.142;2022-10-26T01:52:25;8.80;99.90
9329;DHT22;4703;48.748;19.142;2022-10-26T02:03:59;8.60;99.90
9329;DHT22;4703;48.748;19.142;2022-10-26T02:07:02;8.60;99.90
9329;DHT22;4703;48.748;19.142;2022-10-26T02:13:26;8.50;99.90
9329;DHT22;4703;48.748;19.142;2022-10-26T02:16:08;8.50;99.90
9329;DHT22;4703;48.748;19.142;2022-10-26T02:18:46;8.50;99.90
9329;DHT22;4703;48.748;19.142;2022-10-26T02:21:25;8.40;99.90
9329;DHT22;4703;48.748;19.142;2022-10-26T02:23:57;8.40;99.90
9329;DHT22;4703;48.748;19.142;2022-10-26T02:26:27;8.30;99.90
9329;DHT22;4703;48.748;19.142;2022-10-26T02:28:57;8.30;99.90
9329;DHT22;4703;48.748;19.142;2022-10-26T02:31:28;8.30;99.90
9329;DHT22;4703;48.748;19.142;2022-10-26T02:33:58;8.30;99.90
9329;DHT22;4703;48.748;19.142;2022-10-26T02:36:29;8.20;99.90
9329;DHT22;4703;48.748;19.142;2022-10-26T02:39:00;8.20;99.90
9329;DHT22;4703;48.748;19.142;2022-10-26T02:41:30;8.20;99.90
9329;DHT22;4703;48.748;19.142;2022-10-26T02:44:10;8.20;99.90
9329;DHT22;4703;48.748;19.142;2022-10-26T02:46:41;8.20;99.90
9329;DHT22;4703;48.748;19.142;2022-10-26T02:49:09;8.20;99.90
9329;DHT22;4703;48.748;19.142;2022-10-26T02:51:44;8.20;99.90
9329;DHT22;4703;48.748;19.142;2022-10-26T02:57:03;8.20;99.90
9329;DHT22;4703;48.748;19.142;2022-10-26T02:59:37;8.30;99.90
9329;DHT22;4703;48.748;19.142;2022-10-26T03:02:09;8.30;99.90
9329;DHT22;4703;48.748;19.142;2022-10-26T03:04:37;8.30;99.90
9329;DHT22;4703;48.748;19.142;2022-10-26T03:07:04;8.40;99.90
9329;DHT22;4703;48.748;19.142;2022-10-26T03:09:31;8.40;99.90
9329;DHT22;4703;48.748;19.142;2022-10-26T03:11:57;8.40;99.90
9329;DHT22;4703;48.748;19.142;2022-10-26T03:14:24;11.10;99.90
9329;DHT22;4703;48.748;19.142;2022-10-26T03:16:51;8.40;99.90
9329;DHT22;4703;48.748;19.142;2022-10-26T03:19:18;8.40;99.90
9329;DHT22;4703;48.748;19.142;2022-10-26T03:21:45;8.50;99.90
9329;DHT22;4703;48.748;19.142;2022-10-26T03:24:12;8.50;99.90
9329;DHT22;4703;48.748;19.142;2022-10-26T03:26:39;8.50;99.90
9329;DHT22;4703;48.748;19.142;2022-10-26T03:29:06;8.50;99.90
9329;DHT22;4703;48.748;19.142;2022-10-26T03:31:34;8.50;99.90
9329;DHT22;4703;48.748;19.142;2022-10-26T03:34:01;8.50;99.90
9329;DHT22;4703;48.748;19.142;2022-10-26T03:36:28;8.50;99.90
9329;DHT22;4703;48.748;19.142;2022-10-26T03:38:55;8.60;99.90
9329;DHT22;4703;48.748;19.142;2022-10-26T03:41:22;8.70;99.90
9329;DHT22;4703;48.748;19.142;2022-10-26T03:43:49;8.70;99.90
9329;DHT22;4703;48.748;19.142;2022-10-26T03:46:16;8.70;99.90
9329;DHT22;4703;48.748;19.142;2022-10-26T03:48:42;8.70;99.90
9329;DHT22;4703;48.748;19.142;2022-10-26T03:51:09;8.80;99.90
9329;DHT22;4703;48.748;19.142;2022-10-26T03:53:36;8.80;99.90
9329;DHT22;4703;48.748;19.142;2022-10-26T03:56:03;8.80;99.90
9329;DHT22;4703;48.748;19.142;2022-10-26T03:58:31;8.80;99.90
9329;DHT22;4703;48.748;19.142;2022-10-26T04:00:57;8.80;99.90
9329;DHT22;4703;48.748;19.142;2022-10-26T04:03:24;8.80;99.90
9329;DHT22;4703;48.748;19.142;2022-10-26T04:05:51;8.80;99.90
9329;DHT22;4703;48.748;19.142;2022-10-26T04:08:18;8.90;99.90
9329;DHT22;4703;48.748;19.142;2022-10-26T04:10:46;8.90;99.90
9329;DHT22;4703;48.748;19.142;2022-10-26T04:13:13;9.00;99.90
9329;DHT22;4703;48.748;19.142;2022-10-26T04:15:40;9.00;99.90
9329;DHT22;4703;48.748;19.142;2022-10-26T04:18:08;9.00;99.90
9329;DHT22;4703;48.748;19.142;2022-10-26T04:20:35;9.00;99.90
9329;DHT22;4703;48.748;19.142;2022-10-26T04:23:05;9.00;99.90
9329;DHT22;4703;48.748;19.142;2022-10-26T04:25:32;9.00;99.90
9329;DHT22;4703;48.748;19.142;2022-10-26T04:28:00;9.00;99.90
9329;DHT22;4703;48.748;19.142;2022-10-26T04:30:29;9.00;99.90
9329;DHT22;4703;48.748;19.142;2022-10-26T04:32:57;9.00;99.90
9329;DHT22;4703;48.748;19.142;2022-10-26T04:35:23;9.00;99.90
9329;DHT22;4703;48.748;19.142;2022-10-26T04:37:50;8.90;99.90
9329;DHT22;4703;48.748;19.142;2022-10-26T04:40:17;9.00;99.90
9329;DHT22;4703;48.748;19.142;2022-10-26T04:42:45;8.90;99.90
9329;DHT22;4703;48.748;19.142;2022-10-26T04:45:15;8.90;99.90
9329;DHT22;4703;48.748;19.142;2022-10-26T04:47:42;8.90;99.90
9329;DHT22;4703;48.748;19.142;2022-10-26T04:50:11;8.80;99.90
9329;DHT22;4703;48.748;19.142;2022-10-26T04:52:39;8.90;99.90
9329;DHT22;4703;48.748;19.142;2022-10-26T04:55:06;8.90;99.90
9329;DHT22;4703;48.748;19.142;2022-10-26T04:57:34;8.80;99.90
9329;DHT22;4703;48.748;19.142;2022-10-26T05:00:02;8.70;99.90
9329;DHT22;4703;48.748;19.142;2022-10-26T05:02:30;11.60;99.90
9329;DHT22;4703;48.748;19.142;2022-10-26T05:04:57;8.70;99.90
9329;DHT22;4703;48.748;19.142;2022-10-26T05:07:24;8.80;99.90
9329;DHT22;4703;48.748;19.142;2022-10-26T05:09:51;8.80;99.90
9329;DHT22;4703;48.748;19.142;2022-10-26T05:12:18;11.40;99.90
9329;DHT22;4703;48.748;19.142;2022-10-26T05:14:45;8.90;99.90
9329;DHT22;4703;48.748;19.142;2022-10-26T05:17:12;10.20;99.90
9329;DHT22;4703;48.748;19.142;2022-10-26T05:19:39;8.90;99.90
9329;DHT22;4703;48.748;19.142;2022-10-26T05:22:06;11.70;99.90
9329;DHT22;4703;48.748;19.142;2022-10-26T05:24:33;11.50;99.90
9329;DHT22;4703;48.748;19.142;2022-10-26T05:27:00;10.40;99.90
9329;DHT22;4703;48.748;19.142;2022-10-26T05:29:27;11.80;99.90
9329;DHT22;4703;48.748;19.142;2022-10-26T05:31:54;8.70;99.90
9329;DHT22;4703;48.748;19.142;2022-10-26T05:34:20;8.70;99.90
9329;DHT22;4703;48.748;19.142;2022-10-26T05:36:47;8.70;99.90
9329;DHT22;4703;48.748;19.142;2022-10-26T05:39:14;11.00;99.90
9329;DHT22;4703;48.748;19.142;2022-10-26T05:41:41;8.70;99.90
9329;DHT22;4703;48.748;19.142;2022-10-26T05:44:08;8.70;99.90
9329;DHT22;4703;48.748;19.142;2022-10-26T05:46:35;10.20;99.90
9329;DHT22;4703;48.748;19.142;2022-10-26T05:49:02;8.70;99.90
9329;DHT22;4703;48.748;19.142;2022-10-26T05:51:31;8.70;99.90
9329;DHT22;4703;48.748;19.142;2022-10-26T05:53:58;8.70;99.90
9329;DHT22;4703;48.748;19.142;2022-10-26T05:56:37;8.70;99.90
9329;DHT22;4703;48.748;19.142;2022-10-26T05:59:11;8.70;99.90
9329;DHT22;4703;48.748;19.142;2022-10-26T06:04:23;8.70;99.90
9329;DHT22;4703;48.748;19.142;2022-10-26T06:06:53;8.70;99.90
9329;DHT22;4703;48.748;19.142;2022-10-26T06:09:20;8.70;99.90
9329;DHT22;4703;48.748;19.142;2022-10-26T06:11:48;8.60;99.90
9329;DHT22;4703;48.748;19.142;2022-10-26T06:14:15;8.70;99.90
9329;DHT22;4703;48.748;19.142;2022-10-26T06:17:00;8.70;99.90
9329;DHT22;4703;48.748;19.142;2022-10-26T06:19:52;8.60;99.90
9329;DHT22;4703;48.748;19.142;2022-10-26T06:25:45;8.60;99.90
9329;DHT22;4703;48.748;19.142;2022-10-26T06:31:33;8.70;99.90
9329;DHT22;4703;48.748;19.142;2022-10-26T06:34:00;8.70;99.90
9329;DHT22;4703;48.748;19.142;2022-10-26T06:36:27;8.80;99.90
9329;DHT22;4703;48.748;19.142;2022-10-26T06:39:06;8.80;99.90
9329;DHT22;4703;48.748;19.142;2022-10-26T06:41:36;8.90;99.90
9329;DHT22;4703;48.748;19.142;2022-10-26T06:44:04;8.90;99.90
9329;DHT22;4703;48.748;19.142;2022-10-26T06:46:42;8.90;99.90
9329;DHT22;4703;48.748;19.142;2022-10-26T06:52:15;11.10;99.90
9329;DHT22;4703;48.748;19.142;2022-10-26T06:54:53;9.00;99.90
9329;DHT22;4703;48.748;19.142;2022-10-26T06:57:23;9.10;99.90
9329;DHT22;4703;48.748;19.142;2022-10-26T06:59:56;9.20;99.90
9329;DHT22;4703;48.748;19.142;2022-10-26T07:02:26;9.20;99.90
9329;DHT22;4703;48.748;19.142;2022-10-26T07:04:53;9.10;99.90
9329;DHT22;4703;48.748;19.142;2022-10-26T07:07:22;9.70;99.90
9329;DHT22;4703;48.748;19.142;2022-10-26T07:09:50;10.30;99.90
9329;DHT22;4703;48.748;19.142;2022-10-26T07:12:18;9.00;99.90
9329;DHT22;4703;48.748;19.142;2022-10-26T07:14:45;9.00;99.90
9329;DHT22;4703;48.748;19.142;2022-10-26T07:17:12;9.00;99.90
9329;DHT22;4703;48.748;19.142;2022-10-26T07:19:39;11.80;99.90
9329;DHT22;4703;48.748;19.142;2022-10-26T07:22:06;9.00;99.90
9329;DHT22;4703;48.748;19.142;2022-10-26T07:24:33;9.00;99.90
9329;DHT22;4703;48.748;19.142;2022-10-26T07:27:00;9.00;99.90
9329;DHT22;4703;48.748;19.142;2022-10-26T07:29:27;9.00;99.90
9329;DHT22;4703;48.748;19.142;2022-10-26T07:31:54;9.00;99.90
9329;DHT22;4703;48.748;19.142;2022-10-26T07:34:21;9.10;99.90
9329;DHT22;4703;48.748;19.142;2022-10-26T07:36:48;9.20;99.90
9329;DHT22;4703;48.748;19.142;2022-10-26T07:39:17;9.20;99.90
9329;DHT22;4703;48.748;19.142;2022-10-26T07:41:44;9.10;99.90
9329;DHT22;4703;48.748;19.142;2022-10-26T07:44:12;9.20;99.90
9329;DHT22;4703;48.748;19.142;2022-10-26T07:46:39;9.30;99.90
9329;DHT22;4703;48.748;19.142;2022-10-26T07:49:05;9.30;99.90
9329;DHT22;4703;48.748;19.142;2022-10-26T07:51:32;9.40;99.90
9329;DHT22;4703;48.748;19.142;2022-10-26T07:53:59;9.50;99.90
9329;DHT22;4703;48.748;19.142;2022-10-26T07:56:26;9.50;99.90
9329;DHT22;4703;48.748;19.142;2022-10-26T07:58:54;9.60;99.90
9329;DHT22;4703;48.748;19.142;2022-10-26T08:01:21;9.60;99.90
9329;DHT22;4703;48.748;19.142;2022-10-26T08:03:52;9.70;99.90
9329;DHT22;4703;48.748;19.142;2022-10-26T08:06:21;9.70;99.90
9329;DHT22;4703;48.748;19.142;2022-10-26T08:08:48;9.70;99.90
9329;DHT22;4703;48.748;19.142;2022-10-26T08:11:15;9.90;99.90
9329;DHT22;4703;48.748;19.142;2022-10-26T08:13:42;9.90;99.90
9329;DHT22;4703;48.748;19.142;2022-10-26T08:16:10;10.00;99.90
9329;DHT22;4703;48.748;19.142;2022-10-26T08:18:37;10.00;99.90
9329;DHT22;4703;48.748;19.142;2022-10-26T08:21:06;10.00;99.90
9329;DHT22;4703;48.748;19.142;2022-10-26T08:23:39;10.00;99.90
9329;DHT22;4703;48.748;19.142;2022-10-26T08:26:07;10.50;99.90
9329;DHT22;4703;48.748;19.142;2022-10-26T08:44:04;10.20;99.90
9329;DHT22;4703;48.748;19.142;2022-10-26T08:46:44;10.50;99.90
9329;DHT22;4703;48.748;19.142;2022-10-26T08:49:45;10.70;99.90
9329;DHT22;4703;48.748;19.142;2022-10-26T08:52:15;10.60;99.90
9329;DHT22;4703;48.748;19.142;2022-10-26T08:54:50;10.70;99.90
9329;DHT22;4703;48.748;19.142;2022-10-26T08:57:30;10.80;99.90
9329;DHT22;4703;48.748;19.142;2022-10-26T09:00:06;10.90;99.90
9329;DHT22;4703;48.748;19.142;2022-10-26T09:02:37;11.00;99.90
9329;DHT22;4703;48.748;19.142;2022-10-26T09:05:14;11.10;99.90
9329;DHT22;4703;48.748;19.142;2022-10-26T09:07:55;13.20;99.90
9329;DHT22;4703;48.748;19.142;2022-10-26T09:10:35;11.50;99.90
9329;DHT22;4703;48.748;19.142;2022-10-26T09:13:31;11.80;99.90
9329;DHT22;4703;48.748;19.142;2022-10-26T09:16:19;12.00;99.90
9329;DHT22;4703;48.748;19.142;2022-10-26T09:22:16;12.50;99.90
9329;DHT22;4703;48.748;19.142;2022-10-26T09:24:55;12.80;99.90
9329;DHT22;4703;48.748;19.142;2022-10-26T09:27:30;13.10;99.90
9329;DHT22;4703;48.748;19.142;2022-10-26T09:30:05;15.60;99.90
9329;DHT22;4703;48.748;19.142;2022-10-26T09:32:46;13.60;99.90
9329;DHT22;4703;48.748;19.142;2022-10-26T09:35:21;13.80;99.90
9329;DHT22;4703;48.748;19.142;2022-10-26T09:37:58;14.20;99.90
9329;DHT22;4703;48.748;19.142;2022-10-26T09:43:50;14.40;99.90
9329;DHT22;4703;48.748;19.142;2022-10-26T09:46:33;14.50;99.90
9329;DHT22;4703;48.748;19.142;2022-10-26T09:49:09;14.50;99.90
9329;DHT22;4703;48.748;19.142;2022-10-26T09:51:38;14.70;99.90
9329;DHT22;4703;48.748;19.142;2022-10-26T09:54:16;14.50;99.90
9329;DHT22;4703;48.748;19.142;2022-10-26T09:56:48;15.00;99.90
9329;DHT22;4703;48.748;19.142;2022-10-26T09:59:25;14.40;99.90
9329;DHT22;4703;48.748;19.142;2022-10-26T10:01:54;14.40;99.90
9329;DHT22;4703;48.748;19.142;2022-10-26T10:04:22;14.40;99.90
9329;DHT22;4703;48.748;19.142;2022-10-26T10:09:27;14.30;99.90
9329;DHT22;4703;48.748;19.142;2022-10-26T10:12:00;14.20;99.90
9329;DHT22;4703;48.748;19.142;2022-10-26T10:14:36;15.40;99.90
9329;DHT22;4703;48.748;19.142;2022-10-26T10:17:19;14.80;99.90
9329;DHT22;4703;48.748;19.142;2022-10-26T10:19:47;14.40;99.90
9329;DHT22;4703;48.748;19.142;2022-10-26T10:24:42;15.70;99.90
9329;DHT22;4703;48.748;19.142;2022-10-26T10:27:19;17.00;99.90
9329;DHT22;4703;48.748;19.142;2022-10-26T10:29:51;14.40;99.90
9329;DHT22;4703;48.748;19.142;2022-10-26T10:32:28;15.90;99.90
9329;DHT22;4703;48.748;19.142;2022-10-26T10:35:22;14.60;99.90
9329;DHT22;4703;48.748;19.142;2022-10-26T10:37:50;15.60;99.90
9329;DHT22;4703;48.748;19.142;2022-10-26T10:40:25;15.10;99.90
9329;DHT22;4703;48.748;19.142;2022-10-26T10:43:13;14.70;99.90
9329;DHT22;4703;48.748;19.142;2022-10-26T10:45:46;14.80;99.90
9329;DHT22;4703;48.748;19.142;2022-10-26T10:48:26;14.80;99.90
9329;DHT22;4703;48.748;19.142;2022-10-26T10:51:03;14.90;99.90
9329;DHT22;4703;48.748;19.142;2022-10-26T10:53:44;15.10;99.90
9329;DHT22;4703;48.748;19.142;2022-10-26T11:02:28;15.60;99.90
9329;DHT22;4703;48.748;19.142;2022-10-26T11:05:29;15.90;99.90
9329;DHT22;4703;48.748;19.142;2022-10-26T11:08:20;16.30;99.90
9329;DHT22;4703;48.748;19.142;2022-10-26T11:14:04;16.90;99.90
9329;DHT22;4703;48.748;19.142;2022-10-26T11:16:43;17.20;99.90
9329;DHT22;4703;48.748;19.142;2022-10-26T11:25:27;17.80;99.90
9329;DHT22;4703;48.748;19.142;2022-10-26T11:28:14;17.80;99.90
9329;DHT22;4703;48.748;19.142;2022-10-26T11:30:56;17.90;99.90
9329;DHT22;4703;48.748;19.142;2022-10-26T11:33:33;18.00;99.90
9329;DHT22;4703;48.748;19.142;2022-10-26T11:36:11;18.20;99.90
9329;DHT22;4703;48.748;19.142;2022-10-26T11:39:09;18.40;99.70
9329;DHT22;4703;48.748;19.142;2022-10-26T11:42:02;18.50;99.00
9329;DHT22;4703;48.748;19.142;2022-10-26T11:48:11;18.60;98.50
9329;DHT22;4703;48.748;19.142;2022-10-26T11:50:49;18.50;98.80
9329;DHT22;4703;48.748;19.142;2022-10-26T11:53:39;18.30;98.90
9329;DHT22;4703;48.748;19.142;2022-10-26T11:59:20;17.80;99.50
9329;DHT22;4703;48.748;19.142;2022-10-26T12:01:50;17.60;99.90
9329;DHT22;4703;48.748;19.142;2022-10-26T12:04:21;17.40;99.90
9329;DHT22;4703;48.748;19.142;2022-10-26T12:06:50;17.30;99.90
9329;DHT22;4703;48.748;19.142;2022-10-26T12:09:33;17.70;99.90
9329;DHT22;4703;48.748;19.142;2022-10-26T12:12:08;17.20;99.90
9329;DHT22;4703;48.748;19.142;2022-10-26T12:17:30;19.10;99.90
9329;DHT22;4703;48.748;19.142;2022-10-26T12:23:08;16.80;99.90
9329;DHT22;4703;48.748;19.142;2022-10-26T12:25:39;17.30;99.90
9329;DHT22;4703;48.748;19.142;2022-10-26T12:28:37;17.80;99.90
9329;DHT22;4703;48.748;19.142;2022-10-26T12:33:59;16.70;99.90
9329;DHT22;4703;48.748;19.142;2022-10-26T12:39:41;16.60;99.90
9329;DHT22;4703;48.748;19.142;2022-10-26T12:42:09;16.60;99.90
9329;DHT22;4703;48.748;19.142;2022-10-26T12:52:54;16.50;99.90
9329;DHT22;4703;48.748;19.142;2022-10-26T12:55:41;16.50;99.90
9329;DHT22;4703;48.748;19.142;2022-10-26T13:01:35;16.50;99.90
9329;DHT22;4703;48.748;19.142;2022-10-26T13:04:24;16.40;99.90
9329;DHT22;4703;48.748;19.142;2022-10-26T13:07:22;17.10;99.90
9329;DHT22;4703;48.748;19.142;2022-10-26T13:10:44;16.40;99.90
9329;DHT22;4703;48.748;19.142;2022-10-26T13:12:54;16.40;99.90
9329;DHT22;4703;48.748;19.142;2022-10-26T13:15:37;16.40;99.90
9329;DHT22;4703;48.748;19.142;2022-10-26T13:18:19;16.40;99.90
9329;DHT22;4703;48.748;19.142;2022-10-26T13:23:39;16.50;99.90
9329;DHT22;4703;48.748;19.142;2022-10-26T13:26:13;16.90;99.90
9329;DHT22;4703;48.748;19.142;2022-10-26T13:29:02;17.10;99.90
9329;DHT22;4703;48.748;19.142;2022-10-26T13:34:19;16.40;99.90
9329;DHT22;4703;48.748;19.142;2022-10-26T13:39:43;16.30;99.90
9329;DHT22;4703;48.748;19.142;2022-10-26T13:42:17;16.40;99.90
9329;DHT22;4703;48.748;19.142;2022-10-26T13:45:07;16.40;99.90
9329;DHT22;4703;48.748;19.142;2022-10-26T13:50:37;16.30;99.90
9329;DHT22;4703;48.748;19.142;2022-10-26T13:53:12;17.60;99.90
9329;DHT22;4703;48.748;19.142;2022-10-26T13:55:54;16.40;99.90
9329;DHT22;4703;48.748;19.142;2022-10-26T13:58:33;16.20;99.90
9329;DHT22;4703;48.748;19.142;2022-10-26T14:03:37;16.10;99.90
9329;DHT22;4703;48.748;19.142;2022-10-26T14:06:25;17.50;99.90
9329;DHT22;4703;48.748;19.142;2022-10-26T14:09:00;16.00;99.90
9329;DHT22;4703;48.748;19.142;2022-10-26T14:11:50;16.00;99.90
9329;DHT22;4703;48.748;19.142;2022-10-26T14:14:35;15.90;99.90
9329;DHT22;4703;48.748;19.142;2022-10-26T14:17:03;16.20;99.90
9329;DHT22;4703;48.748;19.142;2022-10-26T14:19:36;17.10;99.90
9329;DHT22;4703;48.748;19.142;2022-10-26T14:22:04;15.90;99.90
9329;DHT22;4703;48.748;19.142;2022-10-26T14:24:33;15.80;99.90
9329;DHT22;4703;48.748;19.142;2022-10-26T14:27:22;15.80;99.90
9329;DHT22;4703;48.748;19.142;2022-10-26T14:29:54;15.90;99.90
9329;DHT22;4703;48.748;19.142;2022-10-26T14:32:41;17.10;99.90
9329;DHT22;4703;48.748;19.142;2022-10-26T14:35:12;16.90;99.90
9329;DHT22;4703;48.748;19.142;2022-10-26T14:37:48;15.60;99.90
9329;DHT22;4703;48.748;19.142;2022-10-26T14:40:20;17.00;99.90
9329;DHT22;4703;48.748;19.142;2022-10-26T14:42:55;16.40;99.90
9329;DHT22;4703;48.748;19.142;2022-10-26T14:45:35;17.10;99.90
9329;DHT22;4703;48.748;19.142;2022-10-26T14:48:37;15.60;99.90
9329;DHT22;4703;48.748;19.142;2022-10-26T14:51:20;15.50;99.90
9329;DHT22;4703;48.748;19.142;2022-10-26T14:53:56;15.50;99.90
9329;DHT22;4703;48.748;19.142;2022-10-26T14:56:27;16.80;99.90
9329;DHT22;4703;48.748;19.142;2022-10-26T14:58:57;17.00;99.90
9329;DHT22;4703;48.748;19.142;2022-10-26T15:01:27;15.50;99.90
9329;DHT22;4703;48.748;19.142;2022-10-26T15:04:20;17.20;99.90
9329;DHT22;4703;48.748;19.142;2022-10-26T15:06:52;15.40;99.90
9329;DHT22;4703;48.748;19.142;2022-10-26T15:09:37;15.30;99.90
9329;DHT22;4703;48.748;19.142;2022-10-26T15:12:30;15.20;99.90
9329;DHT22;4703;48.748;19.142;2022-10-26T15:18:03;15.10;99.90
9329;DHT22;4703;48.748;19.142;2022-10-26T15:20:30;15.10;99.90
9329;DHT22;4703;48.748;19.142;2022-10-26T15:22:59;15.00;99.90
9329;DHT22;4703;48.748;19.142;2022-10-26T15:25:29;15.00;99.90
9329;DHT22;4703;48.748;19.142;2022-10-26T15:28:22;14.90;99.90
9329;DHT22;4703;48.748;19.142;2022-10-26T15:36:19;14.70;99.90
9329;DHT22;4703;48.748;19.142;2022-10-26T15:38:47;15.50;99.90
9329;DHT22;4703;48.748;19.142;2022-10-26T15:41:28;14.60;99.90
9329;DHT22;4703;48.748;19.142;2022-10-26T15:43:58;15.20;99.90
9329;DHT22;4703;48.748;19.142;2022-10-26T15:46:32;16.10;99.90
9329;DHT22;4703;48.748;19.142;2022-10-26T15:49:02;15.80;99.90
9329;DHT22;4703;48.748;19.142;2022-10-26T15:51:30;16.20;99.90
9329;DHT22;4703;48.748;19.142;2022-10-26T15:53:58;14.50;99.90
9329;DHT22;4703;48.748;19.142;2022-10-26T15:56:28;16.30;99.90
9329;DHT22;4703;48.748;19.142;2022-10-26T15:58:56;14.50;99.90
9329;DHT22;4703;48.748;19.142;2022-10-26T16:01:27;14.10;99.90
9329;DHT22;4703;48.748;19.142;2022-10-26T16:03:55;16.20;99.90
9329;DHT22;4703;48.748;19.142;2022-10-26T16:08:55;15.20;99.90
9329;DHT22;4703;48.748;19.142;2022-10-26T16:11:23;17.00;99.90
9329;DHT22;4703;48.748;19.142;2022-10-26T16:13:50;14.70;99.90
9329;DHT22;4703;48.748;19.142;2022-10-26T16:16:18;13.70;99.90
9329;DHT22;4703;48.748;19.142;2022-10-26T16:18:47;16.20;99.90
9329;DHT22;4703;48.748;19.142;2022-10-26T16:21:31;15.90;99.90
9329;DHT22;4703;48.748;19.142;2022-10-26T16:23:58;13.50;99.90
9329;DHT22;4703;48.748;19.142;2022-10-26T16:26:25;15.40;99.90
9329;DHT22;4703;48.748;19.142;2022-10-26T16:28:52;14.80;99.90
9329;DHT22;4703;48.748;19.142;2022-10-26T16:31:19;14.90;99.90
9329;DHT22;4703;48.748;19.142;2022-10-26T16:33:47;13.30;99.90
9329;DHT22;4703;48.748;19.142;2022-10-26T16:36:14;15.70;99.90
9329;DHT22;4703;48.748;19.142;2022-10-26T16:38:41;15.40;99.90
9329;DHT22;4703;48.748;19.142;2022-10-26T16:41:11;15.80;99.90
9329;DHT22;4703;48.748;19.142;2022-10-26T16:43:40;14.20;99.90
9329;DHT22;4703;48.748;19.142;2022-10-26T16:46:11;13.00;99.90
9329;DHT22;4703;48.748;19.142;2022-10-26T16:48:40;15.60;99.90
9329;DHT22;4703;48.748;19.142;2022-10-26T16:51:11;15.60;99.90
9329;DHT22;4703;48.748;19.142;2022-10-26T16:53:39;13.90;99.90
9329;DHT22;4703;48.748;19.142;2022-10-26T16:56:12;15.40;99.90
9329;DHT22;4703;48.748;19.142;2022-10-26T16:58:40;13.70;99.90
9329;DHT22;4703;48.748;19.142;2022-10-26T17:01:08;12.80;99.90
9329;DHT22;4703;48.748;19.142;2022-10-26T17:03:36;12.70;99.90
9329;DHT22;4703;48.748;19.142;2022-10-26T17:06:05;14.20;99.90
9329;DHT22;4703;48.748;19.142;2022-10-26T17:08:34;12.70;99.90
9329;DHT22;4703;48.748;19.142;2022-10-26T17:11:04;15.30;99.90
9329;DHT22;4703;48.748;19.142;2022-10-26T17:13:33;12.50;99.90
9329;DHT22;4703;48.748;19.142;2022-10-26T17:16:13;12.50;99.90
9329;DHT22;4703;48.748;19.142;2022-10-26T17:18:42;12.40;99.90
9329;DHT22;4703;48.748;19.142;2022-10-26T17:21:10;13.80;99.90
9329;DHT22;4703;48.748;19.142;2022-10-26T17:23:38;12.90;99.90
9329;DHT22;4703;48.748;19.142;2022-10-26T17:26:07;13.50;99.90
9329;DHT22;4703;48.748;19.142;2022-10-26T17:28:35;12.20;99.90
9329;DHT22;4703;48.748;19.142;2022-10-26T17:31:09;12.20;99.90
9329;DHT22;4703;48.748;19.142;2022-10-26T17:33:38;14.60;99.90
9329;DHT22;4703;48.748;19.142;2022-10-26T17:36:08;14.50;99.90
9329;DHT22;4703;48.748;19.142;2022-10-26T17:38:39;12.20;99.90
9329;DHT22;4703;48.748;19.142;2022-10-26T17:41:12;12.10;99.90
9329;DHT22;4703;48.748;19.142;2022-10-26T17:43:40;14.50;99.90
9329;DHT22;4703;48.748;19.142;2022-10-26T17:46:13;14.80;99.90
9329;DHT22;4703;48.748;19.142;2022-10-26T17:48:56;12.00;99.90
9329;DHT22;4703;48.748;19.142;2022-10-26T17:51:26;11.90;99.90
9329;DHT22;4703;48.748;19.142;2022-10-26T17:53:54;12.80;99.90
9329;DHT22;4703;48.748;19.142;2022-10-26T17:56:26;13.70;99.90
9329;DHT22;4703;48.748;19.142;2022-10-26T17:58:57;13.40;99.90
9329;DHT22;4703;48.748;19.142;2022-10-26T18:01:26;11.80;99.90
9329;DHT22;4703;48.748;19.142;2022-10-26T18:03:54;11.80;99.90
9329;DHT22;4703;48.748;19.142;2022-10-26T18:06:21;11.70;99.90
9329;DHT22;4703;48.748;19.142;2022-10-26T18:08:49;14.00;99.90
9329;DHT22;4703;48.748;19.142;2022-10-26T18:11:19;14.50;99.90
9329;DHT22;4703;48.748;19.142;2022-10-26T18:13:53;11.60;99.90
9329;DHT22;4703;48.748;19.142;2022-10-26T18:16:22;11.50;99.90
9329;DHT22;4703;48.748;19.142;2022-10-26T18:19:08;12.70;99.90
9329;DHT22;4703;48.748;19.142;2022-10-26T18:21:35;12.50;99.90
9329;DHT22;4703;48.748;19.142;2022-10-26T18:24:04;11.50;99.90
9329;DHT22;4703;48.748;19.142;2022-10-26T18:26:32;11.40;99.90
9329;DHT22;4703;48.748;19.142;2022-10-26T18:29:01;11.70;99.90
9329;DHT22;4703;48.748;19.142;2022-10-26T18:31:30;12.30;99.90
9329;DHT22;4703;48.748;19.142;2022-10-26T18:33:59;14.10;99.90
9329;DHT22;4703;48.748;19.142;2022-10-26T18:36:27;11.30;99.90
9329;DHT22;4703;48.748;19.142;2022-10-26T18:38:55;11.30;99.90
9329;DHT22;4703;48.748;19.142;2022-10-26T18:41:23;14.20;99.90